Time;durP1;ratioP1;P1;durP2;ratioP2;P2;SDS_P1;SDS_P2;PMS_P1;PMS_P2;Temp;Humidity;BMP_temperature;BMP_pressure;BME280_temperature;BME280_humidity;BME280_pressure;Samples;Min_cycle;Max_cycle;Signal;HPM_P1;HPM_P2
2023/01/18 00:00:36;;;;;;;11.53;7.57;;;;;;;-0.98;100.00;93279.47;5034841;28;20544;-88
2023/01/18 00:03:03;;;;;;;11.73;7.10;;;;;;;-1.01;100.00;93282.34;5017535;28;20463;-88
2023/01/18 00:05:29;;;;;;;14.57;8.23;;;;;;;-0.89;100.00;93280.28;5033970;28;20499;-88
2023/01/18 00:07:54;;;;;;;16.73;8.30;;;;;;;-0.99;100.00;93281.22;5042234;28;20464;-89
2023/01/18 00:10:21;;;;;;;18.00;9.23;;;;;;;-1.00;100.00;93271.09;5044111;28;20925;-88
2023/01/18 00:12:47;;;;;;;14.33;9.03;;;;;;;-0.99;100.00;93272.69;5021422;28;20041;-88
2023/01/18 00:15:13;;;;;;;16.37;9.13;;;;;;;-1.08;100.00;93271.06;5044056;28;20464;-88
2023/01/18 00:17:52;;;;;;;14.70;9.20;;;;;;;-1.07;100.00;93275.28;5034823;28;21285;-88
2023/01/18 00:20:23;;;;;;;13.87;8.83;;;;;;;-1.01;100.00;93277.19;5023905;28;21087;-88
2023/01/18 00:22:50;;;;;;;13.07;8.07;;;;;;;-0.90;100.00;93273.50;5038056;28;20480;-88
2023/01/18 00:25:17;;;;;;;14.23;8.60;;;;;;;-0.89;100.00;93268.16;5035301;28;20467;-88
2023/01/18 00:27:48;;;;;;;15.47;9.13;;;;;;;-0.79;100.00;93276.53;5034774;28;20468;-88
2023/01/18 00:30:19;;;;;;;14.77;8.77;;;;;;;-0.81;100.00;93280.25;5045742;28;20471;-89
2023/01/18 00:32:53;;;;;;;16.33;9.87;;;;;;;-0.82;100.00;93289.78;5037466;28;20491;-89
2023/01/18 00:35:21;;;;;;;13.27;7.73;;;;;;;-0.79;100.00;93289.44;5056352;28;20472;-89
2023/01/18 00:37:47;;;;;;;16.10;9.60;;;;;;;-0.83;100.00;93277.84;5060394;28;20542;-89
2023/01/18 00:40:13;;;;;;;12.93;9.40;;;;;;;-0.73;100.00;93277.69;5048620;28;20484;-89
2023/01/18 00:45:24;;;;;;;14.30;8.13;;;;;;;-0.72;100.00;93274.91;5055200;28;20041;-88
2023/01/18 00:47:50;;;;;;;18.77;9.73;;;;;;;-0.67;100.00;93276.19;5053542;28;20440;-89
2023/01/18 00:50:23;;;;;;;12.93;8.50;;;;;;;-0.69;100.00;93278.16;5034495;28;20383;-88
2023/01/18 00:52:49;;;;;;;15.60;8.30;;;;;;;-0.82;100.00;93279.44;5027060;28;20453;-89
2023/01/18 00:55:16;;;;;;;13.90;8.87;;;;;;;-0.84;100.00;93280.56;5035249;28;21787;-88
2023/01/18 00:57:45;;;;;;;14.73;8.33;;;;;;;-0.95;100.00;93282.50;5034567;28;21073;-88
2023/01/18 01:00:13;;;;;;;15.53;8.93;;;;;;;-1.00;100.00;93286.56;5030307;28;20459;-89
2023/01/18 01:02:40;;;;;;;15.93;8.27;;;;;;;-1.02;100.00;93288.50;5033896;28;20460;-89
2023/01/18 01:08:00;;;;;;;16.17;9.50;;;;;;;-0.93;100.00;93297.84;5048712;28;20463;-89
2023/01/18 01:10:26;;;;;;;15.00;9.30;;;;;;;-0.97;100.00;93288.81;5034094;28;20490;-89
2023/01/18 01:26:33;;;;;;;16.40;10.03;;;;;;;-0.79;100.00;93310.09;5061868;28;20546;-89
2023/01/18 01:28:58;;;;;;;20.13;11.40;;;;;;;-0.71;100.00;93317.00;5026879;28;20913;-89
2023/01/18 01:31:24;;;;;;;21.03;11.43;;;;;;;-0.68;100.00;93316.69;5032132;28;20502;-89
2023/01/18 01:33:50;;;;;;;20.37;10.67;;;;;;;-0.69;100.00;93316.88;5035674;28;20028;-89
2023/01/18 01:36:24;;;;;;;18.47;10.87;;;;;;;-0.66;100.00;93316.53;5030886;28;20039;-89
2023/01/18 01:38:50;;;;;;;20.40;12.93;;;;;;;-0.68;100.00;93313.31;5033694;28;21013;-89
2023/01/18 01:41:29;;;;;;;19.83;12.90;;;;;;;-0.72;100.00;93315.41;5034539;28;20521;-89
2023/01/18 01:43:57;;;;;;;19.47;12.63;;;;;;;-0.78;100.00;93309.09;5027461;28;20479;-89
2023/01/18 01:46:52;;;;;;;19.10;11.80;;;;;;;-0.77;100.00;93310.75;5051570;28;20459;-89
2023/01/18 01:49:30;;;;;;;23.13;13.27;;;;;;;-0.87;100.00;93315.25;5026268;28;20506;-89
2023/01/18 01:55:36;;;;;;;21.43;12.63;;;;;;;-0.78;100.00;93322.00;5048948;28;20478;-89
2023/01/18 01:58:24;;;;;;;24.00;14.40;;;;;;;-0.82;100.00;93307.81;5044285;28;20467;-89
2023/01/18 02:00:52;;;;;;;22.33;13.60;;;;;;;-0.78;100.00;93322.00;5038154;28;20518;-89
2023/01/18 02:03:22;;;;;;;20.90;12.97;;;;;;;-0.83;100.00;93319.13;5030573;28;20462;-89
2023/01/18 02:05:58;;;;;;;26.20;14.33;;;;;;;-0.79;100.00;93317.81;5030619;28;21075;-89
2023/01/18 02:08:25;;;;;;;21.97;14.43;;;;;;;-0.73;100.00;93321.53;5031380;28;20472;-89
2023/01/18 02:10:51;;;;;;;20.97;13.23;;;;;;;-0.71;100.00;93325.56;5027969;28;20486;-89
2023/01/18 02:13:19;;;;;;;22.40;13.83;;;;;;;-0.71;100.00;93328.13;5050445;28;20474;-90
2023/01/18 02:16:09;;;;;;;21.83;13.90;;;;;;;-0.64;100.00;93335.22;5032733;28;20526;-89
2023/01/18 02:18:47;;;;;;;22.40;14.00;;;;;;;-0.65;100.00;93338.78;5031924;28;20486;-89
2023/01/18 02:21:31;;;;;;;23.20;13.43;;;;;;;-0.68;100.00;93339.09;5034126;28;21008;-89
2023/01/18 02:24:48;;;;;;;22.83;14.10;;;;;;;-0.65;100.00;93341.38;5045882;28;20525;-89
2023/01/18 02:27:54;;;;;;;22.40;13.00;;;;;;;-0.78;100.00;93336.69;5025652;28;21003;-89
2023/01/18 02:30:31;;;;;;;25.37;15.83;;;;;;;-0.74;100.00;93340.56;5021801;28;20479;-89
2023/01/18 02:33:09;;;;;;;23.87;13.27;;;;;;;-0.77;100.00;93339.13;5043364;28;20505;-89
2023/01/18 02:35:41;;;;;;;21.17;13.90;;;;;;;-0.75;100.00;93347.50;5033633;28;20502;-89
2023/01/18 02:38:16;;;;;;;20.17;12.77;;;;;;;-0.75;100.00;93344.91;5033688;28;20466;-89
2023/01/18 02:41:00;;;;;;;23.10;13.57;;;;;;;-0.67;100.00;93348.44;5047028;28;20463;-89
2023/01/18 02:46:29;;;;;;;23.90;13.77;;;;;;;-0.72;100.00;93354.09;5042287;28;20064;-89
2023/01/18 02:49:21;;;;;;;22.40;13.30;;;;;;;-0.71;100.00;93356.50;5041189;28;20471;-89
2023/01/18 02:51:47;;;;;;;21.80;13.60;;;;;;;-0.62;100.00;93359.91;5033832;28;21239;-89
2023/01/18 02:54:22;;;;;;;23.27;13.77;;;;;;;-0.63;100.00;93354.94;5027066;28;20614;-89
2023/01/18 02:56:59;;;;;;;20.90;13.27;;;;;;;-0.64;100.00;93355.88;5022422;28;20505;-89
2023/01/18 02:59:31;;;;;;;24.00;14.93;;;;;;;-0.56;100.00;93351.53;5047362;28;20474;-89
2023/01/18 03:02:03;;;;;;;22.43;14.40;;;;;;;-0.58;100.00;93356.03;5037948;28;20499;-89
2023/01/18 03:04:42;;;;;;;25.40;14.13;;;;;;;-0.71;100.00;93353.94;5043646;28;20467;-89
2023/01/18 03:07:12;;;;;;;22.00;14.37;;;;;;;-0.72;100.00;93354.09;5031669;28;20479;-89
2023/01/18 03:09:41;;;;;;;23.20;14.67;;;;;;;-0.83;100.00;93344.91;5026482;28;20472;-89
2023/01/18 03:12:44;;;;;;;23.67;14.53;;;;;;;-0.68;100.00;93349.44;5039509;28;20479;-89
2023/01/18 03:15:49;;;;;;;21.53;14.07;;;;;;;-0.69;100.00;93342.66;5048953;28;20447;-89
2023/01/18 03:18:26;;;;;;;21.03;12.90;;;;;;;-0.60;100.00;93354.59;5045037;28;20547;-89
2023/01/18 03:20:54;;;;;;;22.90;14.27;;;;;;;-0.58;100.00;93353.44;5041057;28;20476;-89
2023/01/18 03:23:37;;;;;;;22.37;13.53;;;;;;;-0.52;100.00;93352.00;5037430;28;20467;-89
2023/01/18 03:26:14;;;;;;;22.75;13.50;;;;;;;-0.57;100.00;93349.91;5025851;28;21055;-89
2023/01/18 03:34:59;;;;;;;17.27;10.70;;;;;;;-0.72;100.00;93357.50;5053994;28;20464;-89
2023/01/18 03:37:37;;;;;;;19.90;11.40;;;;;;;-0.69;100.00;93350.41;5041085;28;20458;-88
2023/01/18 03:40:09;;;;;;;18.63;11.30;;;;;;;-0.66;100.00;93355.25;5034864;28;20586;-89
2023/01/18 03:43:09;;;;;;;18.47;10.27;;;;;;;-0.85;100.00;93356.38;5036354;28;20461;-89
2023/01/18 03:45:42;;;;;;;18.70;11.10;;;;;;;-0.81;100.00;93362.81;5052098;28;20446;-89
2023/01/18 03:48:09;;;;;;;12.48;7.90;;;;;;;-0.81;100.00;93366.19;5043259;28;20554;-89
2023/01/18 03:51:13;;;;;;;19.87;11.57;;;;;;;-0.81;100.00;93368.78;5027840;28;20079;-89
2023/01/18 03:53:45;;;;;;;19.85;11.23;;;;;;;-0.77;100.00;93375.25;5052147;28;20529;-90
2023/01/18 03:56:41;;;;;;;20.23;11.23;;;;;;;-0.78;100.00;93376.19;5031503;28;20044;-89
2023/01/18 03:59:08;;;;;;;18.23;10.40;;;;;;;-0.87;100.00;93379.75;5023730;28;20517;-89
2023/01/18 04:01:34;;;;;;;20.40;11.00;;;;;;;-0.80;100.00;93380.72;5036528;28;20829;-89
2023/01/18 04:04:00;;;;;;;19.83;12.70;;;;;;;-0.88;100.00;93382.47;5038505;28;20583;-89
2023/01/18 04:06:26;;;;;;;20.80;11.70;;;;;;;-0.78;100.00;93383.13;5036845;28;20576;-89
2023/01/18 04:09:04;;;;;;;18.67;11.10;;;;;;;-0.87;100.00;93379.75;5050561;28;20040;-90
2023/01/18 04:11:30;;;;;;;17.17;11.50;;;;;;;-0.97;100.00;93382.47;5028930;28;20483;-89
2023/01/18 04:13:56;;;;;;;19.43;11.43;;;;;;;-0.93;100.00;93384.75;5042558;28;20462;-89
2023/01/18 04:16:21;;;;;;;19.80;11.87;;;;;;;-0.83;100.00;93393.16;5017210;28;20040;-88
2023/01/18 04:18:47;;;;;;;17.40;10.30;;;;;;;-0.87;100.00;93394.41;5027855;28;20029;-89
2023/01/18 04:21:13;;;;;;;23.17;11.07;;;;;;;-0.89;100.00;93401.50;5031294;28;20125;-89
2023/01/18 04:23:39;;;;;;;18.77;10.63;;;;;;;-0.90;100.00;93400.72;5025299;28;20407;-89
2023/01/18 04:26:04;;;;;;;16.30;9.77;;;;;;;-0.82;100.00;93408.44;5025881;28;20057;-89
2023/01/18 04:28:32;;;;;;;19.17;11.53;;;;;;;-0.78;100.00;93411.50;5028431;28;20128;-89
2023/01/18 04:30:58;;;;;;;25.90;14.03;;;;;;;-0.79;100.00;93418.44;5040656;28;20017;-89
2023/01/18 04:33:34;;;;;;;23.57;14.03;;;;;;;-0.80;100.00;93416.03;5044316;28;20479;-89
2023/01/18 04:35:59;;;;;;;18.67;11.70;;;;;;;-0.82;100.00;93418.78;5033425;28;20033;-89
2023/01/18 04:38:25;;;;;;;19.53;11.33;;;;;;;-0.88;100.00;93424.56;5032827;28;20825;-89
2023/01/18 04:40:51;;;;;;;22.63;11.93;;;;;;;-0.85;100.00;93424.25;5036323;28;20025;-90
2023/01/18 04:43:25;;;;;;;20.87;12.47;;;;;;;-0.80;100.00;93422.00;5033313;28;20037;-89
2023/01/18 04:45:54;;;;;;;26.03;14.93;;;;;;;-0.75;100.00;93432.63;5027657;28;20041;-88
2023/01/18 04:48:20;;;;;;;23.67;14.30;;;;;;;-0.78;100.00;93427.00;5053737;28;20491;-89
2023/01/18 04:50:47;;;;;;;27.90;13.57;;;;;;;-0.79;100.00;93431.34;5031470;28;20565;-89
2023/01/18 04:53:14;;;;;;;24.47;14.13;;;;;;;-0.80;100.00;93437.50;5036910;28;20440;-89
2023/01/18 04:55:39;;;;;;;27.10;15.43;;;;;;;-0.78;100.00;93445.06;5035592;28;20459;-89
2023/01/18 04:58:05;;;;;;;25.20;13.70;;;;;;;-0.73;100.00;93453.94;5038031;28;20476;-89
2023/01/18 05:00:42;;;;;;;25.87;14.53;;;;;;;-0.74;100.00;93449.75;5044975;28;20033;-89
2023/01/18 05:03:11;;;;;;;25.77;14.50;;;;;;;-0.69;100.00;93458.78;5031649;28;20052;-89
2023/01/18 05:05:43;;;;;;;23.47;14.07;;;;;;;-0.71;100.00;93470.06;5051060;28;20459;-89
2023/01/18 05:08:09;;;;;;;26.50;13.93;;;;;;;-0.63;100.00;93473.66;5033378;28;20500;-89
2023/01/18 05:10:35;;;;;;;23.93;14.27;;;;;;;-0.60;100.00;93475.91;5032107;28;20551;-89
2023/01/18 05:13:02;;;;;;;25.23;14.67;;;;;;;-0.62;100.00;93480.41;5028142;28;20033;-89
2023/01/18 05:15:28;;;;;;;25.33;14.27;;;;;;;-0.54;100.00;93483.81;5045288;28;20066;-90
2023/01/18 05:17:54;;;;;;;30.07;17.43;;;;;;;-0.55;100.00;93484.78;5027913;28;20464;-89
2023/01/18 05:20:19;;;;;;;24.50;15.63;;;;;;;-0.54;100.00;93493.31;5029534;28;20383;-89
2023/01/18 05:22:46;;;;;;;26.70;15.37;;;;;;;-0.53;100.00;93482.03;5030495;28;20061;-89
2023/01/18 05:25:12;;;;;;;26.33;14.57;;;;;;;-0.51;100.00;93493.00;5038731;28;20033;-89
2023/01/18 05:27:37;;;;;;;27.37;14.70;;;;;;;-0.46;100.00;93488.19;5032567;28;20537;-90
2023/01/18 05:30:04;;;;;;;23.47;14.07;;;;;;;-0.53;100.00;93494.94;5020671;28;20032;-90
2023/01/18 05:32:29;;;;;;;29.33;18.10;;;;;;;-0.47;100.00;93499.44;5037943;28;20044;-90
2023/01/18 05:34:55;;;;;;;23.47;15.07;;;;;;;-0.60;100.00;93501.72;5065023;28;20475;-90
2023/01/18 05:37:21;;;;;;;24.07;14.10;;;;;;;-0.52;100.00;93507.69;5051842;28;20025;-89
2023/01/18 05:39:46;;;;;;;25.63;14.13;;;;;;;-0.54;100.00;93506.22;5051030;28;20028;-90
2023/01/18 05:42:15;;;;;;;28.50;15.60;;;;;;;-0.52;100.00;93507.69;5044320;28;20029;-89
2023/01/18 05:44:41;;;;;;;24.03;13.87;;;;;;;-0.52;100.00;93510.25;5032748;28;20028;-89
2023/01/18 05:47:06;;;;;;;23.67;14.33;;;;;;;-0.45;100.00;93513.03;5029725;28;20983;-89
2023/01/18 05:49:32;;;;;;;30.43;16.33;;;;;;;-0.40;100.00;93513.38;5049325;28;20056;-89
2023/01/18 05:52:00;;;;;;;25.40;15.27;;;;;;;-0.32;100.00;93515.94;5026614;28;20136;-89
2023/01/18 05:54:26;;;;;;;27.60;14.27;;;;;;;-0.41;100.00;93519.47;5046667;28;20075;-89
2023/01/18 05:56:52;;;;;;;24.93;13.90;;;;;;;-0.47;100.00;93525.28;5040297;28;20511;-89
2023/01/18 05:59:18;;;;;;;26.33;13.23;;;;;;;-0.46;100.00;93524.31;5033657;28;20033;-89
2023/01/18 06:01:48;;;;;;;25.53;14.30;;;;;;;-0.55;100.00;93525.28;5050535;28;20456;-90
2023/01/18 06:04:14;;;;;;;21.53;14.03;;;;;;;-0.53;100.00;93526.72;5028502;28;20040;-89
2023/01/18 06:06:39;;;;;;;26.20;14.77;;;;;;;-0.56;100.00;93541.72;5032788;28;20451;-89
2023/01/18 06:09:05;;;;;;;26.20;14.87;;;;;;;-0.56;100.00;93546.88;5048646;28;20020;-89
2023/01/18 06:11:31;;;;;;;25.73;14.77;;;;;;;-0.59;100.00;93547.19;5041409;28;20605;-89
2023/01/18 06:13:56;;;;;;;26.67;14.20;;;;;;;-0.60;100.00;93555.91;5048747;28;20029;-89
2023/01/18 06:16:23;;;;;;;26.83;15.67;;;;;;;-0.66;100.00;93556.53;5019728;28;20087;-90
2023/01/18 06:18:50;;;;;;;26.07;14.83;;;;;;;-0.66;100.00;93565.09;5022098;28;20136;-89
2023/01/18 06:21:16;;;;;;;28.93;15.67;;;;;;;-0.69;100.00;93569.75;5027366;28;20448;-89
2023/01/18 06:23:42;;;;;;;28.70;16.07;;;;;;;-0.51;100.00;93579.00;5040130;28;20562;-90
2023/01/18 06:26:08;;;;;;;35.33;19.43;;;;;;;-0.63;100.00;93574.28;5029045;28;20539;-90
2023/01/18 06:28:33;;;;;;;35.50;17.97;;;;;;;-0.50;100.00;93583.22;5045524;28;20173;-90
2023/01/18 06:31:02;;;;;;;39.70;21.33;;;;;;;-0.65;100.00;93587.34;5027041;28;20033;-90
2023/01/18 06:33:27;;;;;;;37.07;20.83;;;;;;;-0.75;100.00;93595.22;5021694;28;20045;-90
2023/01/18 06:35:53;;;;;;;39.80;20.50;;;;;;;-0.73;100.00;93589.91;5026203;28;20451;-89
2023/01/18 06:38:19;;;;;;;41.33;20.83;;;;;;;-0.80;100.00;93602.63;5048932;28;20091;-91
2023/01/18 06:40:45;;;;;;;36.80;21.77;;;;;;;-0.72;100.00;93600.06;5032221;28;20052;-90
2023/01/18 06:43:12;;;;;;;37.27;19.97;;;;;;;-0.73;100.00;93613.13;5034660;28;20468;-89
2023/01/18 06:45:39;;;;;;;36.07;19.67;;;;;;;-0.74;100.00;93616.66;5047242;28;20386;-90
2023/01/18 06:48:05;;;;;;;34.00;19.17;;;;;;;-0.87;100.00;93614.53;5043049;28;20451;-89
2023/01/18 06:50:31;;;;;;;35.77;20.27;;;;;;;-0.86;100.00;93617.91;5035926;28;20559;-89
2023/01/18 06:53:07;;;;;;;38.07;19.50;;;;;;;-0.80;100.00;93619.88;5032952;28;20061;-91
2023/01/18 06:55:33;;;;;;;33.07;18.10;;;;;;;-0.86;100.00;93626.47;5037447;28;20036;-89
2023/01/18 06:58:10;;;;;;;33.60;19.50;;;;;;;-0.91;100.00;93630.44;5028411;28;21085;-88
2023/01/18 07:00:36;;;;;;;35.33;19.47;;;;;;;-1.04;100.00;93634.28;5035602;28;20046;-88
2023/01/18 07:03:01;;;;;;;30.30;17.27;;;;;;;-1.12;100.00;93648.88;5036871;28;20456;-88
2023/01/18 07:05:30;;;;;;;33.97;19.20;;;;;;;-1.12;100.00;93648.88;5039656;28;20479;-89
2023/01/18 07:07:56;;;;;;;34.23;19.87;;;;;;;-1.09;100.00;93651.16;5029545;28;20029;-88
2023/01/18 07:10:33;;;;;;;36.70;20.27;;;;;;;-1.28;100.00;93652.97;5044137;28;20811;-88
2023/01/18 07:13:02;;;;;;;29.53;18.73;;;;;;;-1.28;100.00;93655.53;5032196;28;20494;-88
2023/01/18 07:15:29;;;;;;;27.37;17.17;;;;;;;-1.34;100.00;93665.63;5039866;28;20498;-88
2023/01/18 07:18:02;;;;;;;26.13;17.17;;;;;;;-1.27;100.00;93669.25;5034575;28;20550;-88
2023/01/18 07:20:28;;;;;;;30.25;16.77;;;;;;;-1.28;100.00;93663.28;5050450;28;20483;-88
2023/01/18 07:23:03;;;;;;;25.60;15.30;;;;;;;-1.26;100.00;93669.09;5051469;28;20132;-88
2023/01/18 07:25:28;;;;;;;24.97;15.50;;;;;;;-1.27;100.00;93672.66;5036146;28;20063;-89
2023/01/18 07:27:56;;;;;;;26.37;15.63;;;;;;;-1.22;100.00;93678.16;5027687;28;20514;-89
2023/01/18 07:30:22;;;;;;;25.03;16.57;;;;;;;-1.24;100.00;93681.81;5034198;28;20482;-88
2023/01/18 07:32:51;;;;;;;22.37;14.20;;;;;;;-1.15;100.00;93683.50;5030937;28;20478;-88
2023/01/18 07:35:20;;;;;;;22.43;14.07;;;;;;;-1.16;100.00;93689.63;5025065;28;20037;-88
2023/01/18 07:37:51;;;;;;;22.37;14.27;;;;;;;-1.09;100.00;93698.38;5034475;28;20483;-88
2023/01/18 07:40:22;;;;;;;21.77;14.30;;;;;;;-1.17;100.00;93702.66;5030666;28;20822;-88
2023/01/18 07:42:48;;;;;;;24.10;14.80;;;;;;;-1.23;100.00;93704.91;5042693;28;20467;-89
2023/01/18 07:45:14;;;;;;;20.73;14.10;;;;;;;-1.14;100.00;93704.94;5048426;28;20463;-88
2023/01/18 07:47:41;;;;;;;23.23;12.77;;;;;;;-1.22;100.00;93701.34;5028010;28;21056;-88
2023/01/18 07:50:07;;;;;;;20.93;13.77;;;;;;;-1.18;100.00;93712.19;5028521;28;20502;-88
2023/01/18 07:52:33;;;;;;;19.87;12.13;;;;;;;-1.19;100.00;93711.38;5047773;28;20482;-89
2023/01/18 07:54:59;;;;;;;17.83;12.00;;;;;;;-1.35;100.00;93715.59;5039210;28;20468;-89
2023/01/18 07:57:25;;;;;;;18.07;11.90;;;;;;;-1.25;100.00;93718.91;5042940;28;20060;-89
2023/01/18 07:59:50;;;;;;;18.80;12.13;;;;;;;-1.25;100.00;93717.13;5020544;28;20036;-88
2023/01/18 08:02:16;;;;;;;18.77;11.67;;;;;;;-1.16;100.00;93732.66;5035362;28;20072;-88
2023/01/18 08:04:48;;;;;;;17.93;11.93;;;;;;;-1.09;100.00;93746.59;5027340;28;20040;-88
2023/01/18 08:07:16;;;;;;;18.07;11.43;;;;;;;-1.04;100.00;93741.78;5031653;28;20474;-87
2023/01/18 08:09:50;;;;;;;15.97;10.93;;;;;;;-1.15;100.00;93752.34;5060089;28;20548;-88
2023/01/18 08:12:17;;;;;;;14.23;9.60;;;;;;;-1.15;100.00;93765.22;5032437;28;20488;-88
2023/01/18 08:14:44;;;;;;;13.63;8.53;;;;;;;-1.19;100.00;93773.25;5021030;28;20582;-88
2023/01/18 08:17:10;;;;;;;11.43;7.47;;;;;;;-1.24;100.00;93769.50;5022732;28;20048;-88
2023/01/18 08:19:38;;;;;;;11.60;7.93;;;;;;;-1.31;100.00;93786.53;5024172;28;20456;-88
2023/01/18 08:22:04;;;;;;;9.83;6.67;;;;;;;-1.21;100.00;93788.09;5031609;28;20399;-90
2023/01/18 08:24:42;;;;;;;9.83;6.43;;;;;;;-1.26;100.00;93786.91;5027057;28;20543;-88
2023/01/18 08:27:07;;;;;;;31.57;9.40;;;;;;;-0.65;100.00;93791.25;5027581;28;20099;-86
2023/01/18 08:29:33;;;;;;;12.07;7.10;;;;;;;-0.94;100.00;93796.66;5049839;28;20521;-89
2023/01/18 08:31:59;;;;;;;11.33;5.50;;;;;;;-0.88;100.00;93798.66;5029282;28;20072;-86
2023/01/18 08:34:25;;;;;;;8.40;4.47;;;;;;;-0.88;100.00;93798.66;5027266;28;20041;-87
2023/01/18 08:36:50;;;;;;;7.90;4.50;;;;;;;-0.93;100.00;93808.63;5044297;28;20563;-87
2023/01/18 08:39:16;;;;;;;7.17;4.23;;;;;;;-0.90;100.00;93817.84;5028039;28;20044;-87
2023/01/18 08:41:42;;;;;;;11.13;5.97;;;;;;;-1.09;100.00;93816.22;5031864;28;20087;-89
2023/01/18 08:44:07;;;;;;;8.20;5.20;;;;;;;-0.86;100.00;93835.44;5033535;28;20037;-89
2023/01/18 08:46:35;;;;;;;8.20;4.63;;;;;;;-1.05;100.00;93833.81;5030780;28;20036;-89
2023/01/18 08:49:00;;;;;;;7.80;4.37;;;;;;;-0.81;100.00;93835.78;5021294;28;20032;-90
2023/01/18 08:51:26;;;;;;;7.40;4.10;;;;;;;-0.81;100.00;93838.38;5036334;28;20472;-90
2023/01/18 08:53:57;;;;;;;6.40;3.87;;;;;;;-0.81;100.00;93837.56;5029472;28;20116;-90
2023/01/18 08:56:23;;;;;;;8.23;3.93;;;;;;;-0.59;100.00;93834.53;5038605;28;20506;-90
2023/01/18 08:58:50;;;;;;;5.87;3.53;;;;;;;-0.73;100.00;93846.19;5033014;28;20476;-90
2023/01/18 09:01:17;;;;;;;5.57;3.27;;;;;;;-0.31;100.00;93836.94;5029186;28;20491;-89
2023/01/18 09:03:53;;;;;;;5.63;3.30;;;;;;;-0.37;100.00;93838.41;5046773;28;20455;-89
2023/01/18 09:06:23;;;;;;;5.43;3.07;;;;;;;-0.44;100.00;93845.09;5023136;28;20963;-90
2023/01/18 09:08:49;;;;;;;7.57;3.50;;;;;;;-0.16;100.00;93852.72;5031083;28;20468;-89
2023/01/18 09:11:17;;;;;;;7.77;4.53;;;;;;;-0.19;100.00;93853.03;5032621;28;20484;-89
2023/01/18 09:13:45;;;;;;;6.83;4.20;;;;;;;-0.06;100.00;93854.22;5022634;28;20525;-89
2023/01/18 09:16:10;;;;;;;7.50;4.40;;;;;;;-0.09;100.00;93856.31;5031786;28;20504;-89
2023/01/18 09:18:37;;;;;;;10.17;4.97;;;;;;;-0.35;100.00;93864.84;5051122;28;20937;-89
2023/01/18 09:21:07;;;;;;;7.53;3.60;;;;;;;-0.08;100.00;93863.91;5029368;28;20024;-89
2023/01/18 09:23:34;;;;;;;8.43;3.40;;;;;;;0.25;100.00;93864.06;5046769;28;20559;-89
2023/01/18 09:26:15;;;;;;;6.13;3.07;;;;;;;-0.15;100.00;93872.41;5036766;28;20486;-89
2023/01/18 09:28:47;;;;;;;13.10;3.40;;;;;;;0.07;100.00;93884.81;5040913;28;20481;-89
2023/01/18 09:31:13;;;;;;;6.83;3.20;;;;;;;-0.15;100.00;93893.06;5025911;28;20471;-90
2023/01/18 09:33:41;;;;;;;10.67;3.90;;;;;;;0.10;100.00;93894.03;5027952;28;20460;-89
2023/01/18 09:36:29;;;;;;;15.43;3.43;;;;;;;-0.07;100.00;93903.44;5027993;28;20061;-88
2023/01/18 09:38:55;;;;;;;8.00;3.27;;;;;;;0.46;100.00;93907.63;5038031;28;21083;-89
2023/01/18 09:41:36;;;;;;;10.77;3.70;;;;;;;-0.05;100.00;93914.47;5049096;28;20451;-89
2023/01/18 09:44:02;;;;;;;6.40;2.97;;;;;;;-0.02;100.00;93919.31;5022294;28;20492;-89
2023/01/18 09:46:34;;;;;;;9.07;3.20;;;;;;;-0.12;100.00;93926.38;5033069;28;20455;-89
2023/01/18 09:49:01;;;;;;;8.87;3.27;;;;;;;-0.22;100.00;93931.63;5030125;28;20116;-90
2023/01/18 09:51:38;;;;;;;7.63;3.60;;;;;;;-0.09;100.00;93931.22;5026052;28;20506;-90
2023/01/18 09:54:41;;;;;;;11.17;6.40;;;;;;;-0.10;100.00;93927.84;5042617;28;20529;-92
2023/01/18 09:57:49;;;;;;;7.60;4.32;;;;;;;-0.25;100.00;93940.47;5032919;28;20726;-90
2023/01/18 10:00:25;;;;;;;16.97;7.50;;;;;;;-0.07;100.00;93949.94;5028022;28;20049;-91
2023/01/18 10:03:01;;;;;;;7.73;4.10;;;;;;;0.08;100.00;93953.63;5026847;28;20476;-90
2023/01/18 10:05:43;;;;;;;7.57;4.03;;;;;;;0.02;100.00;93956.81;5038393;28;20516;-90
2023/01/18 10:08:24;;;;;;;5.60;3.37;;;;;;;0.08;100.00;93961.38;5034728;28;20553;-91
2023/01/18 10:11:10;;;;;;;5.50;2.90;;;;;;;0.02;100.00;93963.75;5031784;28;20484;-90
2023/01/18 10:13:49;;;;;;;6.97;4.10;;;;;;;0.21;100.00;93964.38;5031565;28;20494;-90
2023/01/18 10:16:19;;;;;;;6.37;3.60;;;;;;;0.03;100.00;93971.34;5027279;28;20482;-90
2023/01/18 10:18:50;;;;;;;10.57;5.07;;;;;;;0.06;100.00;93976.22;5037702;28;20463;-90
2023/01/18 10:22:05;;;;;;;11.33;6.00;;;;;;;-0.09;100.00;93982.91;5029321;28;20868;-90
2023/01/18 10:24:30;;;;;;;7.17;3.93;;;;;;;-0.15;100.00;93978.31;5034309;28;20475;-90
2023/01/18 10:27:09;;;;;;;5.50;3.33;;;;;;;-0.04;100.00;93985.81;5029420;28;20464;-90
2023/01/18 10:30:10;;;;;;;8.30;3.70;;;;;;;-0.35;100.00;93986.22;5035014;28;20124;-90
2023/01/18 10:32:37;;;;;;;5.90;3.33;;;;;;;-0.08;100.00;94000.00;5051634;28;20479;-89
2023/01/18 10:35:28;;;;;;;56.67;12.80;;;;;;;0.28;100.00;94005.94;5033956;28;20459;-92
2023/01/18 10:37:59;;;;;;;11.50;4.40;;;;;;;0.28;100.00;93990.44;5041688;28;20555;-92
2023/01/18 10:40:25;;;;;;;8.17;3.60;;;;;;;-0.02;100.00;94004.59;5047397;28;20471;-92
2023/01/18 10:42:55;;;;;;;8.43;4.53;;;;;;;0.12;100.00;94004.03;5052404;28;20546;-88
2023/01/18 10:45:25;;;;;;;8.03;4.03;;;;;;;0.18;100.00;94008.63;5032111;28;20565;-88
2023/01/18 10:47:53;;;;;;;16.90;5.50;;;;;;;-0.09;100.00;94014.72;5032439;28;20467;-88
2023/01/18 10:50:33;;;;;;;14.23;4.50;;;;;;;0.08;100.00;94014.84;5032048;28;20467;-90
2023/01/18 10:53:31;;;;;;;14.50;4.40;;;;;;;0.63;100.00;94017.94;5063282;28;20471;-89
2023/01/18 10:56:03;;;;;;;7.60;4.17;;;;;;;0.77;100.00;94020.91;5038899;28;20463;-89
2023/01/18 10:58:32;;;;;;;9.20;4.57;;;;;;;0.87;100.00;94022.44;5033136;28;20597;-90
2023/01/18 11:01:00;;;;;;;6.50;3.77;;;;;;;0.25;100.00;94039.84;5041526;28;20452;-88
2023/01/18 11:03:27;;;;;;;7.47;4.27;;;;;;;0.38;100.00;94039.44;5032685;28;20550;-83
2023/01/18 11:06:03;;;;;;;9.20;4.70;;;;;;;0.14;100.00;94038.31;5059953;28;21039;-84
2023/01/18 11:08:38;;;;;;;7.13;4.60;;;;;;;0.14;100.00;94046.06;5052335;28;20813;-85
2023/01/18 11:11:14;;;;;;;7.63;4.80;;;;;;;0.26;100.00;94045.81;5034390;28;20479;-84
2023/01/18 11:13:49;;;;;;;13.20;4.73;;;;;;;0.10;100.00;94049.91;5034234;28;20558;-84
2023/01/18 11:16:17;;;;;;;22.07;7.27;;;;;;;-0.09;100.00;94060.41;5044758;28;20482;-84
2023/01/18 11:19:01;;;;;;;12.00;5.00;;;;;;;-0.29;100.00;94057.97;5046157;28;20472;-86
2023/01/18 11:21:48;;;;;;;9.43;5.75;;;;;;;-0.40;100.00;94068.50;5035748;28;20459;-87
2023/01/18 11:24:16;;;;;;;11.53;6.23;;;;;;;-0.21;100.00;94071.91;5032226;28;20408;-86
2023/01/18 11:27:10;;;;;;;9.30;4.90;;;;;;;-0.34;100.00;94073.06;5035052;28;20467;-87
2023/01/18 11:29:41;;;;;;;7.75;4.90;;;;;;;-0.30;100.00;94079.59;5035806;28;21082;-85
2023/01/18 11:32:20;;;;;;;7.97;4.70;;;;;;;-0.34;100.00;94083.38;5037240;28;20509;-85
2023/01/18 11:34:57;;;;;;;11.30;6.63;;;;;;;-0.15;100.00;94086.81;5026975;28;20917;-87
2023/01/18 11:37:37;;;;;;;9.77;5.90;;;;;;;-0.31;100.00;94087.47;5027602;28;21046;-85
2023/01/18 11:40:18;;;;;;;10.00;5.50;;;;;;;-0.35;100.00;94086.94;5035327;28;20455;-85
2023/01/18 11:42:44;;;;;;;13.83;6.00;;;;;;;-0.43;100.00;94083.47;5034839;28;20451;-86
2023/01/18 11:45:42;;;;;;;7.67;4.93;;;;;;;-0.51;100.00;94102.25;5030302;28;20629;-88
2023/01/18 11:48:31;;;;;;;16.83;7.77;;;;;;;-0.45;100.00;94096.53;5046961;28;20468;-85
2023/01/18 11:51:24;;;;;;;9.73;5.00;;;;;;;-0.59;100.00;94104.75;5038882;28;21245;-86
2023/01/18 11:54:07;;;;;;;7.47;4.87;;;;;;;-0.55;100.00;94109.47;5034622;28;20467;-86
2023/01/18 11:56:55;;;;;;;7.88;4.63;;;;;;;-0.44;100.00;94112.81;5026701;28;20464;-86
2023/01/18 11:59:25;;;;;;;12.57;5.63;;;;;;;-0.43;100.00;94102.34;5051960;28;20335;-85
2023/01/18 12:02:34;;;;;;;10.47;4.70;;;;;;;-0.42;100.00;94106.56;5044552;28;20482;-85
2023/01/18 12:05:14;;;;;;;11.85;4.93;;;;;;;-0.37;100.00;94109.53;5065522;28;20463;-84
2023/01/18 12:08:15;;;;;;;6.80;4.30;;;;;;;-0.49;100.00;94121.00;5034410;28;20067;-85